Time;durP1;ratioP1;P1;durP2;ratioP2;P2;SDS_P1;SDS_P2;PMS_P1;PMS_P2;Temp;Humidity;BMP_temperature;BMP_pressure;BME280_temperature;BME280_humidity;BME280_pressure;Samples;Min_cycle;Max_cycle;Signal;HPM_P1;HPM_P2
2022/02/05 00:02:58;;;;;;;39.92;23.63;;;;;;;;;;6189341;23;20005;-88
2022/02/05 00:05:51;;;;;;;41.50;24.38;;;;;;;;;;6185679;23;20015;-88
2022/02/05 00:43:15;;;;;;;44.40;27.55;;;;;;;;;;6189702;23;20013;-88
2022/02/05 00:45:45;;;;;;;40.60;27.23;;;;;;;;;;6186524;23;20001;-88
2022/02/05 00:48:12;;;;;;;44.17;26.88;;;;;;;;;;6186098;23;20016;-88
2022/02/05 00:50:42;;;;;;;45.03;27.27;;;;;;;;;;6184487;23;20012;-87
2022/02/05 00:53:14;;;;;;;48.30;25.70;;;;;;;;;;6184915;23;20009;-88
2022/02/05 00:55:44;;;;;;;44.45;27.60;;;;;;;;;;6186721;23;20321;-88
2022/02/05 00:58:09;;;;;;;39.78;25.27;;;;;;;;;;6184747;23;20005;-88
2022/02/05 01:00:36;;;;;;;45.35;26.77;;;;;;;;;;6184768;23;20428;-87
2022/02/05 01:03:03;;;;;;;43.58;26.65;;;;;;;;;;6184825;23;20005;-88
2022/02/05 01:05:30;;;;;;;39.78;24.95;;;;;;;;;;6186336;23;20004;-88
2022/02/05 01:07:58;;;;;;;39.50;23.42;;;;;;;;;;6184418;23;20340;-88
2022/02/05 01:10:25;;;;;;;42.65;25.25;;;;;;;;;;6186655;23;20476;-87
2022/02/05 01:12:56;;;;;;;39.58;23.70;;;;;;;;;;6184579;23;20447;-87
2022/02/05 01:15:26;;;;;;;39.38;24.08;;;;;;;;;;6186241;23;20011;-88
2022/02/05 01:17:59;;;;;;;;;;;;;;;;;;6185083;23;20013;-88
2022/02/05 01:23:12;;;;;;;41.05;23.25;;;;;;;;;;6186223;23;20012;-87
2022/02/05 01:25:44;;;;;;;37.13;23.27;;;;;;;;;;6185986;23;20357;-88
2022/02/05 01:28:15;;;;;;;36.40;22.42;;;;;;;;;;6184553;23;20450;-87
2022/02/05 01:30:44;;;;;;;37.28;22.67;;;;;;;;;;6186060;23;20484;-88
2022/02/05 01:33:38;;;;;;;37.92;21.85;;;;;;;;;;6185893;23;20409;-88
2022/02/05 01:36:25;;;;;;;40.10;23.83;;;;;;;;;;6184581;23;20012;-87
2022/02/05 01:55:31;;;;;;;39.17;25.70;;;;;;;;;;6186458;23;20055;-86
2022/02/05 01:58:17;;;;;;;39.00;23.05;;;;;;;;;;6184559;23;20009;-88
2022/02/05 02:11:58;;;;;;;35.78;22.52;;;;;;;;;;6186097;23;20340;-88
2022/02/05 02:22:10;;;;;;;40.33;22.20;;;;;;;;;;6194975;23;20008;-89
2022/02/05 02:25:02;;;;;;;39.80;22.48;;;;;;;;;;6184370;23;20032;-89
2022/02/05 02:27:48;;;;;;;37.28;21.92;;;;;;;;;;6186633;23;20013;-87
2022/02/05 02:30:22;;;;;;;39.05;23.80;;;;;;;;;;6188304;23;20001;-88
2022/02/05 02:32:53;;;;;;;34.20;21.58;;;;;;;;;;6186374;23;20432;-88
2022/02/05 02:35:24;;;;;;;34.92;22.40;;;;;;;;;;6186350;23;20027;-88
2022/02/05 02:37:54;;;;;;;39.63;24.30;;;;;;;;;;6185771;23;20326;-88
2022/02/05 02:40:27;;;;;;;34.97;21.45;;;;;;;;;;6187497;23;20005;-87
2022/02/05 02:43:00;;;;;;;37.80;21.75;;;;;;;;;;6187328;23;20017;-88
2022/02/05 02:45:26;;;;;;;33.65;21.58;;;;;;;;;;6187364;23;20009;-83
2022/02/05 02:47:51;;;;;;;38.45;23.10;;;;;;;;;;6186926;23;20120;-83
2022/02/05 02:58:40;;;;;;;38.10;22.58;;;;;;;;;;6186317;23;20016;-82
2022/02/05 03:01:06;;;;;;;39.28;23.42;;;;;;;;;;6187182;23;20380;-81
2022/02/05 03:03:31;;;;;;;36.20;22.65;;;;;;;;;;6187547;23;20013;-82
2022/02/05 03:05:56;;;;;;;40.35;23.55;;;;;;;;;;6187434;23;20009;-82
2022/02/05 03:08:22;;;;;;;36.13;22.63;;;;;;;;;;6187227;23;20425;-82
2022/02/05 03:10:47;;;;;;;41.00;23.83;;;;;;;;;;6188112;23;20337;-81
2022/02/05 03:13:13;;;;;;;40.25;24.77;;;;;;;;;;6187647;23;20091;-82
2022/02/05 03:15:40;;;;;;;41.22;23.75;;;;;;;;;;6187222;23;19997;-83
2022/02/05 03:18:15;;;;;;;43.22;25.98;;;;;;;;;;6187370;23;20009;-82
2022/02/05 03:20:41;;;;;;;44.08;26.75;;;;;;;;;;6187352;23;20005;-80
2022/02/05 03:23:06;;;;;;;47.92;25.95;;;;;;;;;;6186817;23;20039;-83
2022/02/05 03:25:33;;;;;;;43.75;25.85;;;;;;;;;;6186872;23;20047;-80
2022/02/05 03:28:00;;;;;;;42.92;24.35;;;;;;;;;;6186792;23;20005;-81
2022/02/05 03:30:26;;;;;;;43.13;24.48;;;;;;;;;;6186725;23;20068;-82
2022/02/05 03:32:51;;;;;;;41.95;23.65;;;;;;;;;;6186872;23;20055;-82
2022/02/05 03:35:17;;;;;;;42.67;23.98;;;;;;;;;;6186530;23;20001;-82
2022/02/05 03:37:43;;;;;;;41.17;24.13;;;;;;;;;;6186570;23;20025;-81
2022/02/05 03:40:09;;;;;;;41.67;24.98;;;;;;;;;;6186872;23;20005;-81
2022/02/05 03:42:35;;;;;;;39.92;22.88;;;;;;;;;;6186950;23;20009;-83
2022/02/05 03:45:01;;;;;;;42.13;25.17;;;;;;;;;;6187109;23;20310;-83
2022/02/05 03:47:31;;;;;;;41.33;23.73;;;;;;;;;;6186999;23;20033;-81
2022/02/05 03:49:57;;;;;;;42.45;22.80;;;;;;;;;;6186780;23;20004;-82
2022/02/05 03:52:22;;;;;;;41.55;24.48;;;;;;;;;;6186938;23;20060;-82
2022/02/05 03:54:47;;;;;;;39.92;24.08;;;;;;;;;;6186666;23;20372;-83
2022/02/05 03:57:13;;;;;;;40.70;23.50;;;;;;;;;;6187197;23;20000;-82
2022/02/05 03:59:38;;;;;;;42.60;24.33;;;;;;;;;;6186462;23;20012;-82
2022/02/05 04:02:04;;;;;;;42.70;24.50;;;;;;;;;;6185154;23;20009;-83
2022/02/05 04:04:30;;;;;;;39.70;24.95;;;;;;;;;;6186912;23;20456;-83
2022/02/05 04:06:55;;;;;;;40.80;24.05;;;;;;;;;;6186714;23;20004;-89
2022/02/05 04:09:26;;;;;;;42.53;24.20;;;;;;;;;;6185000;23;20329;-88
2022/02/05 04:15:56;;;;;;;40.25;23.73;;;;;;;;;;6185318;23;20096;-87
2022/02/05 04:17:28;;;;;;;40.88;23.63;;;;;;;;;;6186616;23;20039;-87
2022/02/05 04:19:53;;;;;;;42.78;24.02;;;;;;;;;;6184832;23;20001;-88
2022/02/05 04:22:19;;;;;;;41.83;24.58;;;;;;;;;;6185082;23;20009;-88
2022/02/05 04:24:44;;;;;;;39.15;23.77;;;;;;;;;;6185129;23;20005;-88
2022/02/05 04:27:10;;;;;;;44.65;24.73;;;;;;;;;;6186687;23;20005;-88
2022/02/05 04:29:36;;;;;;;47.15;25.55;;;;;;;;;;6186167;23;20012;-88
2022/02/05 04:32:02;;;;;;;41.47;23.58;;;;;;;;;;6185107;23;20011;-87
2022/02/05 04:34:28;;;;;;;42.03;23.42;;;;;;;;;;6186286;23;20009;-87
2022/02/05 04:36:54;;;;;;;40.42;24.20;;;;;;;;;;6185237;23;20472;-88
2022/02/05 04:39:21;;;;;;;40.42;23.50;;;;;;;;;;6186357;23;20076;-88
2022/02/05 04:59:52;;;;;;;44.47;24.48;;;;;;;;;;6190163;23;20148;-88
2022/02/05 05:02:42;;;;;;;44.85;24.73;;;;;;;;;;6186165;23;20076;-87
2022/02/05 05:13:14;;;;;;;39.55;24.65;;;;;;;;;;6196662;23;20012;-87
2022/02/05 05:20:55;;;;;;;43.17;23.17;;;;;;;;;;6186385;23;20067;-87
2022/02/05 05:23:21;;;;;;;39.47;23.05;;;;;;;;;;6186211;23;20004;-88
2022/02/05 05:25:46;;;;;;;38.47;22.92;;;;;;;;;;6184677;23;20052;-88
2022/02/05 05:28:12;;;;;;;38.55;23.58;;;;;;;;;;6185930;23;20329;-88
2022/02/05 05:30:38;;;;;;;41.65;23.77;;;;;;;;;;6184587;23;20088;-88
2022/02/05 05:33:04;;;;;;;42.88;23.80;;;;;;;;;;6184626;23;20455;-88
2022/02/05 05:35:29;;;;;;;42.65;24.20;;;;;;;;;;6184624;23;20044;-87
2022/02/05 05:37:54;;;;;;;39.80;24.08;;;;;;;;;;6184911;23;20329;-88
2022/02/05 05:40:20;;;;;;;42.72;22.85;;;;;;;;;;6186078;23;19997;-87
2022/02/05 05:42:53;;;;;;;45.45;24.23;;;;;;;;;;6184356;23;20017;-88
2022/02/05 05:53:11;;;;;;;36.03;22.88;;;;;;;;;;6192654;23;20332;-88
2022/02/05 05:55:42;;;;;;;40.15;22.60;;;;;;;;;;6187576;23;20076;-88
2022/02/05 05:58:07;;;;;;;41.65;25.63;;;;;;;;;;6188281;23;19997;-88
2022/02/05 06:00:33;;;;;;;43.20;24.10;;;;;;;;;;6186046;23;20008;-88
2022/02/05 06:02:58;;;;;;;36.55;22.30;;;;;;;;;;6188052;23;20021;-88
2022/02/05 06:05:24;;;;;;;41.47;23.13;;;;;;;;;;6186489;23;20005;-88
2022/02/05 06:07:49;;;;;;;43.63;23.60;;;;;;;;;;6187837;23;20059;-87
2022/02/05 06:10:14;;;;;;;38.58;22.73;;;;;;;;;;6186520;23;20446;-88
2022/02/05 06:12:40;;;;;;;42.10;23.85;;;;;;;;;;6187537;23;20005;-87
2022/02/05 06:15:08;;;;;;;40.53;24.45;;;;;;;;;;6185750;23;20013;-88
2022/02/05 06:17:33;;;;;;;43.53;24.98;;;;;;;;;;6187794;23;20001;-90
2022/02/05 06:19:59;;;;;;;38.78;23.52;;;;;;;;;;6190261;23;20043;-89
2022/02/05 06:22:24;;;;;;;37.13;21.17;;;;;;;;;;6186176;23;20381;-88
2022/02/05 06:24:50;;;;;;;38.22;22.08;;;;;;;;;;6185897;23;20321;-88
2022/02/05 06:27:15;;;;;;;40.42;23.40;;;;;;;;;;6186080;23;20421;-86
2022/02/05 06:29:41;;;;;;;36.38;21.05;;;;;;;;;;6187307;23;20001;-86
2022/02/05 06:32:07;;;;;;;39.35;22.00;;;;;;;;;;6187688;23;20004;-86
2022/02/05 06:34:32;;;;;;;42.67;23.20;;;;;;;;;;6187906;23;20328;-85
2022/02/05 06:36:58;;;;;;;38.47;21.63;;;;;;;;;;6187850;23;20005;-87
2022/02/05 06:39:24;;;;;;;37.85;21.83;;;;;;;;;;6186209;23;20036;-86
2022/02/05 06:41:49;;;;;;;40.72;21.70;;;;;;;;;;6187408;23;20013;-86
2022/02/05 06:44:15;;;;;;;36.78;21.08;;;;;;;;;;6188017;23;20005;-88
2022/02/05 06:46:42;;;;;;;38.05;21.42;;;;;;;;;;6187620;23;20084;-88
2022/02/05 06:49:08;;;;;;;34.92;21.83;;;;;;;;;;6187307;23;20360;-87
2022/02/05 06:51:34;;;;;;;38.08;21.67;;;;;;;;;;6189836;23;20001;-87
2022/02/05 06:54:00;;;;;;;37.40;22.80;;;;;;;;;;6188675;23;20044;-87
2022/02/05 06:56:25;;;;;;;41.15;22.20;;;;;;;;;;6185993;23;20356;-87
2022/02/05 06:58:51;;;;;;;42.42;22.83;;;;;;;;;;6187446;23;19993;-87
2022/02/05 07:01:16;;;;;;;34.42;21.83;;;;;;;;;;6187680;23;20001;-87
2022/02/05 07:03:42;;;;;;;38.28;22.88;;;;;;;;;;6187694;23;20008;-88
2022/02/05 07:06:07;;;;;;;36.63;21.98;;;;;;;;;;6185805;23;20012;-87
2022/02/05 07:08:33;;;;;;;39.55;22.75;;;;;;;;;;6185579;23;20043;-87
2022/02/05 07:10:59;;;;;;;37.92;21.85;;;;;;;;;;6185565;23;20005;-87
2022/02/05 07:13:24;;;;;;;37.78;22.17;;;;;;;;;;6187647;23;20086;-86
2022/02/05 07:18:31;;;;;;;39.40;23.02;;;;;;;;;;6194498;23;20005;-84
2022/02/05 07:21:03;;;;;;;42.05;23.95;;;;;;;;;;6188324;23;20005;-88
2022/02/05 07:31:28;;;;;;;35.55;22.73;;;;;;;;;;6187241;23;20443;-88
2022/02/05 07:33:53;;;;;;;37.20;22.17;;;;;;;;;;6185639;23;20009;-87
2022/02/05 09:32:17;;;;;;;31.85;20.13;;;;;;;;;;6127354;23;20033;-84
2022/02/05 10:31:30;;;;;;;29.05;20.00;;;;;;;;;;6152526;23;20009;-86
2022/02/05 10:34:13;;;;;;;33.03;21.02;;;;;;;;;;6156029;23;20052;-86
2022/02/05 10:36:44;;;;;;;27.77;19.90;;;;;;;;;;6154605;23;20013;-82
2022/02/05 10:39:14;;;;;;;26.63;19.90;;;;;;;;;;6155842;23;20005;-82
2022/02/05 10:44:27;;;;;;;25.48;20.63;;;;;;;;;;6156359;23;19980;-85
2022/02/05 10:46:57;;;;;;;23.73;19.80;;;;;;;;;;6155594;23;20033;-88
2022/02/05 10:49:48;;;;;;;23.55;18.73;;;;;;;;;;6157915;23;20009;-85
2022/02/05 10:52:27;;;;;;;21.55;18.38;;;;;;;;;;6156255;23;20009;-86
2022/02/05 10:55:43;;;;;;;21.80;17.92;;;;;;;;;;6156259;23;20092;-84
2022/02/05 10:58:09;;;;;;;20.45;17.30;;;;;;;;;;6146725;23;20064;-82
2022/02/05 11:05:53;;;;;;;22.98;18.85;;;;;;;;;;6157770;23;20016;-84
2022/02/05 11:08:20;;;;;;;21.85;17.63;;;;;;;;;;6158031;23;20431;-91
2022/02/05 11:19:00;;;;;;;25.95;18.02;;;;;;;;;;6161890;23;20440;-90
2022/02/05 11:21:28;;;;;;;20.05;17.10;;;;;;;;;;6160468;23;20036;-92
2022/02/05 11:24:01;;;;;;;22.20;17.55;;;;;;;;;;6163161;23;20009;-94
2022/02/05 11:26:27;;;;;;;20.85;17.15;;;;;;;;;;6161716;23;20005;-94
2022/02/05 11:29:02;;;;;;;21.42;18.00;;;;;;;;;;6166501;23;20012;-89
2022/02/05 11:31:42;;;;;;;21.25;17.88;;;;;;;;;;6170060;23;20074;-92
2022/02/05 11:34:29;;;;;;;21.35;17.52;;;;;;;;;;6178501;23;20010;-92
2022/02/05 11:37:08;;;;;;;22.30;15.90;;;;;;;;;;6178748;23;20045;-91
2022/02/05 11:39:51;;;;;;;21.17;16.38;;;;;;;;;;6160358;23;20096;-92
2022/02/05 11:42:28;;;;;;;19.38;16.55;;;;;;;;;;6160404;23;20310;-90
2022/02/05 11:44:59;;;;;;;24.23;16.65;;;;;;;;;;6158439;23;20056;-91
2022/02/05 11:47:30;;;;;;;19.52;15.98;;;;;;;;;;6156646;23;20005;-92
2022/02/05 11:49:56;;;;;;;18.48;16.10;;;;;;;;;;6157827;23;20017;-93
2022/02/05 11:52:44;;;;;;;19.90;15.93;;;;;;;;;;6159472;23;20033;-90
2022/02/05 11:55:11;;;;;;;16.77;14.77;;;;;;;;;;6160644;23;20009;-94
2022/02/05 11:57:45;;;;;;;17.25;14.15;;;;;;;;;;6159787;23;20012;-93
2022/02/05 12:00:21;;;;;;;19.40;14.65;;;;;;;;;;6159312;23;20009;-94
2022/02/05 12:03:02;;;;;;;19.85;14.63;;;;;;;;;;6160623;23;20012;-90
2022/02/05 12:05:36;;;;;;;21.23;15.50;;;;;;;;;;6159290;23;20029;-91
2022/02/05 12:08:05;;;;;;;19.13;15.48;;;;;;;;;;6157541;23;20013;-91
2022/02/05 12:10:45;;;;;;;18.83;15.13;;;;;;;;;;6164157;23;20013;-93
2022/02/05 12:13:22;;;;;;;18.20;14.18;;;;;;;;;;6158997;23;20009;-91
2022/02/05 12:15:59;;;;;;;22.13;16.52;;;;;;;;;;6163120;23;20013;-90
2022/02/05 12:18:28;;;;;;;20.17;16.20;;;;;;;;;;6164369;23;20010;-89
2022/02/05 12:21:17;;;;;;;20.33;16.60;;;;;;;;;;6165604;23;20011;-91
2022/02/05 12:24:33;;;;;;;19.70;15.98;;;;;;;;;;6105632;23;20014;-92
2022/02/05 12:27:01;;;;;;;22.02;16.35;;;;;;;;;;6098618;23;20015;-89
2022/02/05 12:29:29;;;;;;;22.17;16.77;;;;;;;;;;6073249;23;20124;-90
2022/02/05 12:31:55;;;;;;;19.52;16.58;;;;;;;;;;6072794;23;20029;-88
2022/02/05 12:34:21;;;;;;;21.90;17.02;;;;;;;;;;6095843;23;20006;-85
2022/02/05 12:36:50;;;;;;;24.23;17.13;;;;;;;;;;6095572;23;20007;-85
2022/02/05 12:39:25;;;;;;;21.25;17.08;;;;;;;;;;6072255;23;20050;-93
2022/02/05 12:41:55;;;;;;;24.13;17.92;;;;;;;;;;6072773;23;20011;-93
2022/02/05 12:44:23;;;;;;;25.65;21.02;;;;;;;;;;6097881;23;19999;-93
2022/02/05 12:46:54;;;;;;;23.60;18.70;;;;;;;;;;6098375;23;20018;-91
2022/02/05 12:49:25;;;;;;;21.17;16.67;;;;;;;;;;6077510;23;20010;-88
2022/02/05 12:51:52;;;;;;;26.05;18.92;;;;;;;;;;6074075;23;20018;-85
2022/02/05 12:54:21;;;;;;;29.98;22.35;;;;;;;;;;6073020;23;20011;-91
2022/02/05 12:56:48;;;;;;;26.38;20.33;;;;;;;;;;6073437;23;20010;-89
2022/02/05 12:59:17;;;;;;;25.60;20.00;;;;;;;;;;6074006;23;20034;-88
2022/02/05 13:02:00;;;;;;;22.42;18.20;;;;;;;;;;6097921;23;20010;-90
2022/02/05 13:04:37;;;;;;;29.15;20.63;;;;;;;;;;6174388;23;20040;-86
2022/02/05 13:07:15;;;;;;;28.67;20.33;;;;;;;;;;6186529;23;20032;-89
2022/02/05 13:09:55;;;;;;;31.70;22.08;;;;;;;;;;6188667;23;20012;-88
2022/02/05 13:12:23;;;;;;;;;;;;;;;;;;6187742;23;20005;-88
2022/02/05 13:15:20;;;;;;;22.35;17.85;;;;;;;;;;6191117;23;19915;-88
2022/02/05 13:26:22;;;;;;;22.77;16.20;;;;;;;;;;6196955;23;20020;-87
2022/02/05 13:34:16;;;;;;;21.05;15.10;;;;;;;;;;6201320;23;20044;-88
2022/02/05 13:36:59;;;;;;;17.42;11.55;;;;;;;;;;6199577;23;20013;-86
2022/02/05 13:42:27;;;;;;;21.38;12.63;;;;;;;;;;6188652;23;20016;-88
2022/02/05 13:44:57;;;;;;;14.40;10.52;;;;;;;;;;6188198;23;20005;-87
2022/02/05 13:47:31;;;;;;;14.50;10.77;;;;;;;;;;6189343;23;20005;-87
2022/02/05 13:50:10;;;;;;;21.73;13.13;;;;;;;;;;6189161;23;20081;-86
2022/02/05 13:52:44;;;;;;;16.88;11.75;;;;;;;;;;6189314;23;19997;-87
2022/02/05 13:55:23;;;;;;;14.68;11.25;;;;;;;;;;6187489;23;20009;-87
2022/02/05 14:01:34;;;;;;;17.17;13.00;;;;;;;;;;6189921;23;20076;-87
2022/02/05 14:04:24;;;;;;;18.80;13.07;;;;;;;;;;6153900;23;20005;-87
2022/02/05 14:06:59;;;;;;;15.95;12.73;;;;;;;;;;6162974;23;20015;-88
2022/02/05 14:09:30;;;;;;;17.92;12.48;;;;;;;;;;6132925;23;20006;-88
2022/02/05 14:11:59;;;;;;;17.05;11.48;;;;;;;;;;6135813;23;20016;-88
2022/02/05 14:14:28;;;;;;;14.45;10.63;;;;;;;;;;6134349;23;20005;-87
2022/02/05 14:16:55;;;;;;;15.43;11.27;;;;;;;;;;6134507;23;20068;-87
2022/02/05 14:19:27;;;;;;;13.18;9.98;;;;;;;;;;6135547;23;20311;-86
2022/02/05 14:21:54;;;;;;;15.05;10.88;;;;;;;;;;6137758;23;20006;-88
2022/02/05 14:24:25;;;;;;;18.77;12.23;;;;;;;;;;6135643;23;20405;-87
2022/02/05 14:29:21;;;;;;;16.58;11.98;;;;;;;;;;6168229;23;20012;-87
2022/02/05 14:31:53;;;;;;;18.02;12.68;;;;;;;;;;6136068;23;20009;-87
2022/02/05 14:34:45;;;;;;;20.23;13.77;;;;;;;;;;6137253;23;20009;-87
2022/02/05 14:42:39;;;;;;;19.63;13.00;;;;;;;;;;6159654;23;20080;-87
2022/02/05 14:45:05;;;;;;;20.65;13.48;;;;;;;;;;6161152;23;20001;-87
2022/02/05 14:47:31;;;;;;;18.13;12.35;;;;;;;;;;6135982;23;20009;-85
2022/02/05 14:49:56;;;;;;;17.90;11.60;;;;;;;;;;6158614;23;20064;-84
2022/02/05 14:52:23;;;;;;;19.38;12.63;;;;;;;;;;6158784;23;20005;-83
2022/02/05 14:54:48;;;;;;;17.13;12.70;;;;;;;;;;6158352;23;20012;-84
2022/02/05 14:57:14;;;;;;;18.90;13.35;;;;;;;;;;6158209;23;20081;-84
2022/02/05 14:59:41;;;;;;;18.25;11.93;;;;;;;;;;6147852;23;20024;-84
2022/02/05 15:02:08;;;;;;;17.15;13.00;;;;;;;;;;6128552;23;20005;-85
2022/02/05 15:04:36;;;;;;;18.65;13.35;;;;;;;;;;6129435;23;20006;-84
2022/02/05 15:07:03;;;;;;;16.48;11.05;;;;;;;;;;6129422;23;20012;-85
2022/02/05 15:09:28;;;;;;;15.82;11.45;;;;;;;;;;6127493;23;20041;-84
2022/02/05 15:11:54;;;;;;;31.33;20.48;;;;;;;;;;6128870;23;19998;-84
2022/02/05 15:14:19;;;;;;;27.98;18.55;;;;;;;;;;6128623;23;20009;-84
2022/02/05 15:16:45;;;;;;;20.42;13.45;;;;;;;;;;6129319;23;20006;-83
2022/02/05 15:19:10;;;;;;;16.65;12.57;;;;;;;;;;6102347;23;20005;-86
2022/02/05 15:21:38;;;;;;;21.92;13.50;;;;;;;;;;6102311;23;20017;-84
2022/02/05 15:24:05;;;;;;;17.52;13.10;;;;;;;;;;6128323;23;20073;-83
2022/02/05 15:26:33;;;;;;;28.25;18.63;;;;;;;;;;6127994;23;20426;-84
2022/02/05 15:29:00;;;;;;;19.08;12.55;;;;;;;;;;6128053;23;20029;-85
2022/02/05 15:31:25;;;;;;;18.83;13.68;;;;;;;;;;6102572;23;20017;-83
2022/02/05 15:33:55;;;;;;;19.50;13.25;;;;;;;;;;6128040;23;20006;-83
2022/02/05 15:36:45;;;;;;;19.48;13.98;;;;;;;;;;6102071;23;20010;-83
2022/02/05 15:39:20;;;;;;;19.37;14.27;;;;;;;;;;6127594;23;20329;-83
2022/02/05 15:44:30;;;;;;;21.13;13.77;;;;;;;;;;6128079;23;20012;-83
2022/02/05 15:46:55;;;;;;;21.60;13.77;;;;;;;;;;6127629;23;20097;-83
2022/02/05 15:49:21;;;;;;;24.67;14.55;;;;;;;;;;6127628;23;20002;-86
2022/02/05 15:51:46;;;;;;;20.50;13.38;;;;;;;;;;6102789;23;20011;-83
2022/02/05 15:54:14;;;;;;;26.58;14.93;;;;;;;;;;6101799;23;20338;-85
2022/02/05 15:59:08;;;;;;;20.00;13.77;;;;;;;;;;6128449;23;20010;-83
2022/02/05 16:01:34;;;;;;;22.65;14.23;;;;;;;;;;6127597;23;20010;-83
2022/02/05 16:03:59;;;;;;;21.92;15.30;;;;;;;;;;6127619;23;20381;-82
2022/02/05 16:06:25;;;;;;;26.83;18.08;;;;;;;;;;6127579;23;19997;-87
2022/02/05 16:08:50;;;;;;;26.17;16.63;;;;;;;;;;6127551;23;20001;-83
2022/02/05 16:11:17;;;;;;;26.50;17.25;;;;;;;;;;6101612;23;20084;-85
2022/02/05 16:13:47;;;;;;;25.17;16.40;;;;;;;;;;6101443;23;20009;-84
2022/02/05 16:16:13;;;;;;;31.63;21.42;;;;;;;;;;6127532;23;19998;-84
2022/02/05 16:18:38;;;;;;;33.40;21.30;;;;;;;;;;6127354;23;20134;-84
2022/02/05 16:21:05;;;;;;;38.88;21.83;;;;;;;;;;6127720;23;20410;-86
2022/02/05 16:23:30;;;;;;;30.80;20.90;;;;;;;;;;6102382;23;20061;-87
2022/02/05 16:25:56;;;;;;;40.50;23.52;;;;;;;;;;6127690;23;20038;-86
2022/02/05 16:28:21;;;;;;;34.88;22.48;;;;;;;;;;6101425;23;20057;-85
2022/02/05 16:30:50;;;;;;;41.63;23.10;;;;;;;;;;6101397;23;20006;-84
2022/02/05 16:33:19;;;;;;;34.35;21.85;;;;;;;;;;6101361;23;20444;-84
2022/02/05 16:35:47;;;;;;;35.60;21.92;;;;;;;;;;6127553;23;20077;-85
2022/02/05 16:38:28;;;;;;;36.40;22.80;;;;;;;;;;6101327;23;20429;-86
2022/02/05 16:40:54;;;;;;;31.38;20.90;;;;;;;;;;6127597;23;20029;-87
2022/02/05 16:43:19;;;;;;;36.78;22.70;;;;;;;;;;6127244;23;20009;-85
2022/02/05 16:45:45;;;;;;;32.75;20.23;;;;;;;;;;6127653;23;20333;-87
2022/02/05 16:48:13;;;;;;;31.67;19.90;;;;;;;;;;6127768;23;20006;-92
2022/02/05 16:50:41;;;;;;;33.55;21.23;;;;;;;;;;6132110;23;20033;-88
2022/02/05 16:53:07;;;;;;;32.33;19.67;;;;;;;;;;6128473;23;20073;-88
2022/02/05 16:55:34;;;;;;;28.33;18.55;;;;;;;;;;6127637;23;20012;-87
2022/02/05 16:57:59;;;;;;;31.70;18.55;;;;;;;;;;6128024;23;20002;-88
2022/02/05 17:00:26;;;;;;;28.65;18.45;;;;;;;;;;6122464;23;20024;-85
2022/02/05 17:02:54;;;;;;;28.75;17.38;;;;;;;;;;6157847;23;20009;-84
2022/02/05 17:05:24;;;;;;;33.05;19.88;;;;;;;;;;6131468;23;20336;-85
2022/02/05 17:07:57;;;;;;;37.47;20.13;;;;;;;;;;6131298;23;20013;-86
2022/02/05 17:10:23;;;;;;;32.50;19.67;;;;;;;;;;6156515;23;20059;-86
2022/02/05 17:12:48;;;;;;;31.70;18.67;;;;;;;;;;6130371;23;20133;-85
2022/02/05 17:15:16;;;;;;;30.88;20.60;;;;;;;;;;6130270;23;20061;-85
2022/02/05 17:17:43;;;;;;;29.90;19.10;;;;;;;;;;6130122;23;20150;-85
2022/02/05 17:20:09;;;;;;;35.67;19.92;;;;;;;;;;6130527;23;20009;-85
2022/02/05 17:22:36;;;;;;;40.20;23.67;;;;;;;;;;6130516;23;20023;-84
2022/02/05 17:25:01;;;;;;;37.60;24.50;;;;;;;;;;6154831;23;20092;-84
2022/02/05 17:27:28;;;;;;;34.08;21.05;;;;;;;;;;6155950;23;20072;-84
2022/02/05 17:29:53;;;;;;;32.63;18.33;;;;;;;;;;6157014;23;20052;-84
2022/02/05 17:32:19;;;;;;;30.02;17.67;;;;;;;;;;6130289;23;20080;-85
2022/02/05 17:34:47;;;;;;;32.67;20.52;;;;;;;;;;6154465;23;20005;-86
2022/02/05 17:37:13;;;;;;;36.63;22.05;;;;;;;;;;6130081;23;20099;-84
2022/02/05 17:39:42;;;;;;;37.03;21.75;;;;;;;;;;6156103;23;20002;-85
2022/02/05 17:42:07;;;;;;;33.60;20.25;;;;;;;;;;6156647;23;20002;-87
2022/02/05 17:44:33;;;;;;;30.85;17.90;;;;;;;;;;6156770;23;20048;-85
2022/02/05 17:46:59;;;;;;;32.03;18.50;;;;;;;;;;6156105;23;20005;-83
2022/02/05 17:49:24;;;;;;;32.03;18.02;;;;;;;;;;6156411;23;20025;-87
2022/02/05 17:51:49;;;;;;;30.45;18.80;;;;;;;;;;6130116;23;20002;-86
2022/02/05 17:54:15;;;;;;;30.08;17.80;;;;;;;;;;6130095;23;20303;-87
2022/02/05 17:56:42;;;;;;;31.35;19.92;;;;;;;;;;6158098;23;20009;-90
2022/02/05 17:59:12;;;;;;;31.92;19.13;;;;;;;;;;6154847;23;20001;-87
2022/02/05 18:01:40;;;;;;;34.45;19.63;;;;;;;;;;6129025;23;20381;-86
2022/02/05 18:04:05;;;;;;;28.90;19.13;;;;;;;;;;6128791;23;20002;-87
2022/02/05 18:06:37;;;;;;;29.55;18.83;;;;;;;;;;6103047;23;20029;-86
2022/02/05 18:11:56;;;;;;;35.53;19.90;;;;;;;;;;6074318;23;20013;-86
2022/02/05 18:14:34;;;;;;;31.58;18.88;;;;;;;;;;6128855;23;20430;-87
2022/02/05 18:17:00;;;;;;;32.60;20.63;;;;;;;;;;6128488;23;20511;-84
2022/02/05 18:19:27;;;;;;;36.42;20.90;;;;;;;;;;6129125;23;20006;-85
2022/02/05 18:21:53;;;;;;;34.80;20.75;;;;;;;;;;6128681;23;20013;-86
2022/02/05 18:24:19;;;;;;;35.22;20.42;;;;;;;;;;6128669;23;20010;-86
2022/02/05 18:26:44;;;;;;;35.67;20.95;;;;;;;;;;6102899;23;20006;-86
2022/02/05 18:29:10;;;;;;;38.08;22.13;;;;;;;;;;6128398;23;20497;-84
2022/02/05 18:31:37;;;;;;;36.00;20.70;;;;;;;;;;6128554;23;20006;-85
2022/02/05 18:34:04;;;;;;;34.35;19.92;;;;;;;;;;6102322;23;20032;-86
2022/02/05 18:36:29;;;;;;;31.33;19.85;;;;;;;;;;6128560;23;20379;-86
2022/02/05 18:38:55;;;;;;;36.72;21.27;;;;;;;;;;6102687;23;20037;-85
2022/02/05 18:41:26;;;;;;;34.58;20.30;;;;;;;;;;6103109;23;20001;-87
2022/02/05 18:43:55;;;;;;;33.45;20.92;;;;;;;;;;6128764;23;20017;-86
2022/02/05 18:46:22;;;;;;;33.92;19.80;;;;;;;;;;6102463;23;20013;-86
2022/02/05 18:48:47;;;;;;;32.42;19.65;;;;;;;;;;6102104;23;20017;-86
2022/02/05 18:51:12;;;;;;;35.53;21.10;;;;;;;;;;6128338;23;20056;-85
2022/02/05 18:53:38;;;;;;;36.05;20.95;;;;;;;;;;6128698;23;20034;-85
2022/02/05 18:56:03;;;;;;;33.65;21.20;;;;;;;;;;6102034;23;20010;-87
2022/02/05 18:58:29;;;;;;;37.42;20.77;;;;;;;;;;6128482;23;20081;-83
2022/02/05 19:01:08;;;;;;;34.30;20.05;;;;;;;;;;6128071;23;20010;-83
2022/02/05 19:04:15;;;;;;;38.57;22.93;;;;;;;;;;6102308;23;20143;-83
2022/02/05 19:12:27;;;;;;;36.22;20.75;;;;;;;;;;6128402;23;20028;-85
2022/02/05 19:20:08;;;;;;;37.08;19.98;;;;;;;;;;6127589;23;20013;-84
2022/02/05 19:22:35;;;;;;;35.33;20.20;;;;;;;;;;6101245;23;20010;-85
2022/02/05 19:25:02;;;;;;;37.53;21.10;;;;;;;;;;6127828;23;20030;-85
2022/02/05 19:27:27;;;;;;;36.67;22.35;;;;;;;;;;6127685;23;20006;-84
2022/02/05 19:29:53;;;;;;;40.38;24.88;;;;;;;;;;6127976;23;20373;-85
2022/02/05 19:32:18;;;;;;;98.03;51.95;;;;;;;;;;6101850;23;20117;-84
2022/02/05 19:34:44;;;;;;;36.88;22.85;;;;;;;;;;6102079;23;20013;-84
2022/02/05 19:37:09;;;;;;;38.95;21.05;;;;;;;;;;6101931;23;20010;-83
2022/02/05 19:39:34;;;;;;;39.10;23.52;;;;;;;;;;6102470;23;20006;-87
2022/02/05 19:42:00;;;;;;;40.35;23.15;;;;;;;;;;6128418;23;20006;-85
2022/02/05 19:44:49;;;;;;;203.90;101.25;;;;;;;;;;6128184;23;20035;-83
2022/02/05 19:47:25;;;;;;;57.03;30.73;;;;;;;;;;6127721;23;20446;-85
2022/02/05 19:49:51;;;;;;;425.90;196.30;;;;;;;;;;6102049;23;20009;-85
2022/02/05 19:52:16;;;;;;;107.47;51.25;;;;;;;;;;6101803;23;20014;-84
2022/02/05 19:54:41;;;;;;;42.15;24.25;;;;;;;;;;6127965;23;20010;-84
2022/02/05 19:57:08;;;;;;;41.17;22.42;;;;;;;;;;6127816;23;20310;-84
2022/02/05 19:59:33;;;;;;;39.75;22.95;;;;;;;;;;6110458;23;20040;-84
2022/02/05 20:02:00;;;;;;;41.30;22.88;;;;;;;;;;6131302;23;20013;-85
2022/02/05 20:04:35;;;;;;;49.67;26.40;;;;;;;;;;6131238;23;20340;-84
2022/02/05 20:07:10;;;;;;;50.65;27.33;;;;;;;;;;6130911;23;20002;-84
2022/02/05 20:09:35;;;;;;;60.85;31.35;;;;;;;;;;6131085;23;20044;-84
2022/02/05 20:12:01;;;;;;;47.45;26.80;;;;;;;;;;6131008;23;20002;-84
2022/02/05 20:14:28;;;;;;;38.90;22.33;;;;;;;;;;6131214;23;20017;-87
2022/02/05 20:16:53;;;;;;;51.92;25.77;;;;;;;;;;6130990;23;20352;-84
2022/02/05 20:19:19;;;;;;;68.22;32.17;;;;;;;;;;6130982;23;20036;-85
2022/02/05 20:21:45;;;;;;;59.58;28.98;;;;;;;;;;6157272;23;20009;-84
2022/02/05 20:24:15;;;;;;;54.25;28.67;;;;;;;;;;6157375;23;19997;-89
2022/02/05 20:26:41;;;;;;;44.40;23.73;;;;;;;;;;6157099;23;20036;-88
2022/02/05 20:29:06;;;;;;;47.45;28.05;;;;;;;;;;6157257;23;20005;-84
2022/02/05 20:31:32;;;;;;;43.83;25.27;;;;;;;;;;6131541;23;20085;-90
2022/02/05 20:33:58;;;;;;;44.63;25.15;;;;;;;;;;6157896;23;20061;-91
2022/02/05 20:36:24;;;;;;;44.80;24.40;;;;;;;;;;6157716;23;20333;-89
2022/02/05 20:38:49;;;;;;;48.33;27.55;;;;;;;;;;6157866;23;20005;-88
2022/02/05 20:41:15;;;;;;;43.80;26.00;;;;;;;;;;6131824;23;20014;-89
2022/02/05 20:43:40;;;;;;;46.53;25.52;;;;;;;;;;6131754;23;20307;-90